Tiempo atmosférico en la estación meteorológica de Alcoy/Alcoi, Alacant/Alicante (600 m.)



Fecha
DESCASC
Temp. máxima en grados centígrados (hora)
DESCASC
Temp. mínima en grados centígrados (hora)
DESCASC
Temp. media en grados centígrados
DESCASC
Racha de viento máxima en m/sg (hora)
DESCASC
Velocidad máxima media en intervalos de 10 minutos(hora)
DESCASC
Precipitaciones diarias en mm
DESCASC
Precipitaciones de 00:00 a 06:00 en mm
DESCASC
Precipitaciones de 06:00 a 12:00 en mm
DESCASC
Precipitaciones de 12:00 a 18:00 en mm
DESCASC
Precipitaciones de 18:00 a 24:00 en mm
DESCASC
23-06-2019 31.9 (16:00) 15.9 (06:30) 23.9 6.94 (17:40) 3.89 (15:00) 0 0 0 0 0
22-06-2019 28.4 (18:00) 16 (06:30) 22.2 7.78 (15:20) 4.44 (15:20) 0 0 0 0 0
21-06-2019 26.3 (16:50) 17.6 (04:50) 21.9 8.33 (16:30) 4.72 (16:20) 0 0 0 0 0
20-06-2019 27.7 (14:20) 19.1 (00:00) 23.4 10 (14:00) 4.44 (13:40) 0 0 0 0 0
19-06-2019 -- (--) -- (--) -- -- (--) -- (--) -- 0 0 -- 0
18-06-2019 30.4 (12:30) 16.2 (00:00) 23.3 9.44 (16:10) 5 (16:20) 0 0 0 0 0
17-06-2019 30.5 (12:50) 15.3 (00:00) 22.9 10.28 (16:20) 4.72 (16:00) 0 0 0 0 0
16-06-2019 24.6 (15:30) 13.6 (00:00) 19.1 6.94 (15:20) 3.61 (16:10) 0 0 0 0 0
15-06-2019 29.9 (17:00) 16.7 (00:00) 23.3 9.17 (09:00) 3.89 (13:50) 0 0 0 0 0
14-06-2019 29.5 (15:00) 13.1 (00:00) 21.3 10.83 (17:00) 5 (16:20) 0 0 0 0 0
13-06-2019 20.8 (13:20) 14.3 (00:00) 17.5 8.89 (12:20) 4.72 (18:00) 0 0 0 0 0
12-06-2019 22.2 (14:10) 10.1 (00:00) 16.2 7.78 (16:00) 4.17 (14:50) 0.2 0 0.2 0 0
11-06-2019 24.4 (13:40) 11.7 (00:00) 18 8.61 (14:30) 5 (13:50) 1.2 0 0 0 1.2
10-06-2019 29.2 (16:00) 19.4 (00:00) 24.3 8.89 (16:20) 4.17 (02:40) 0 0 0 0 0
09-06-2019 27.6 (19:30) 13.3 (00:00) 20.5 5.83 (20:00) 3.06 (19:50) 0 0 0 0 0
08-06-2019 19.4 (11:10) 13.5 (00:00) 16.4 8.33 (13:30) 4.72 (13:00) 0 0 0 0 0
07-06-2019 28.9 (18:20) 14.3 (00:00) 21.6 8.61 (12:30) 3.89 (11:00) 0 0 0 0 0
06-06-2019 25.5 (13:50) 12.7 (00:00) 19.1 8.61 (15:10) 4.17 (15:40) 0 0 0 0 0
05-06-2019 25.1 (18:10) 15.5 (00:00) 20.3 14.17 (15:00) 5.83 (14:20) 0 0 0 0 0
04-06-2019 31.9 (14:30) 15.1 (00:00) 23.5 10.56 (18:40) 4.72 (16:10) 0 0 0 0 0
03-06-2019 31.4 (14:50) 14.9 (00:00) 23.1 9.72 (17:20) 4.17 (17:10) 0 0 0 0 0
02-06-2019 30 (13:10) 12.6 (00:00) 21.3 7.22 (16:50) 3.89 (14:20) 0 0 0 0 0
01-06-2019 28.2 (17:20) 11.7 (00:00) 20 6.39 (14:20) 3.33 (13:20) 0 0 0 0 0
31-05-2019 26.9 (17:30) 11.6 (00:00) 19.3 7.5 (15:40) 3.61 (15:30) 0 0 0 0 0
30-05-2019 25.8 (15:40) 10.1 (00:00) 17.9 9.17 (15:40) 3.33 (16:00) 0 0 0 0 0
29-05-2019 21.8 (17:20) 11 (00:00) 16.4 9.17 (14:30) 5 (15:20) 0 0 0 0 0
28-05-2019 26.8 (17:00) 13.7 (00:00) 20.2 7.78 (13:50) 4.44 (14:50) 0 0 0 0 0
27-05-2019 27.5 (16:10) 11.5 (00:00) 19.5 7.5 (15:40) 4.44 (15:40) 0 0 0 0 0
26-05-2019 21.7 (12:00) 10.8 (00:00) 16.3 11.67 (15:50) 4.44 (15:50) 0 0 0 0 0

Gráficas

Temp. máximas Temp. mínimas Temp. medias Precipitaciones Rachas de viento máximas Velocidades máximas media en intervalos de 10 minutos

Datos horarios

Fecha y hora oficial Temperatura (ºC) Velocidad del viento (km/h) Dirección del viento Racha (km/h) Dirección de racha Precipitación (mm) Presión (hPa) Tendencia (hPa) Humedad (%)
2019-06-24 23:00:00 21 4 Sudeste 8 Este 0 -- -- 52
2019-06-24 22:00:00 22.6 4 Este 12 Este 0 -- -- 55
2019-06-24 21:00:00 24.8 6 Nordeste 20 Este 0 -- -- 48
2019-06-24 20:00:00 26.6 12 Nordeste 22 Nordeste 0 -- -- 42
2019-06-24 19:00:00 27.6 14 Nordeste 24 Nordeste 0 -- -- 40
2019-06-24 18:00:00 28.4 13 Nordeste 31 Nordeste 0 -- -- 41
2019-06-24 17:00:00 28.4 13 Nordeste 26 Nordeste 0 -- -- 39
2019-06-24 16:00:00 28.5 10 Nordeste 26 Nordeste 0 -- -- 39
2019-06-24 15:00:00 27.6 12 Nordeste 29 Este 0 -- -- 43
2019-06-24 14:00:00 27.5 10 Nordeste 22 Este 0 -- -- 42
2019-06-24 13:00:00 26.6 11 Nordeste 23 Este 0 -- -- 41
2019-06-24 12:00:00 25.6 11 Nordeste 23 Nordeste 0 -- -- 42
2019-06-24 11:00:00 25 12 Nordeste 23 Nordeste 0 -- -- 41
2019-06-24 10:00:00 23.6 7 Este 14 Nordeste 0 -- -- 45
2019-06-24 09:00:00 21.4 2 Este 6 Oeste 0 -- -- 54
2019-06-24 08:00:00 18.7 3 Sudoeste 10 Oeste 0 -- -- 52
2019-06-24 07:00:00 16.6 6 Sudoeste 12 Sudoeste 0 -- -- 55
2019-06-24 06:00:00 16.8 5 Oeste 10 Sudoeste 0 -- -- 52
2019-06-24 05:00:00 17.4 4 Oeste 8 Oeste 0 -- -- 51
2019-06-24 04:00:00 17.7 0 Calma 11 Oeste 0 -- -- 52
2019-06-24 03:00:00 18.8 9 Sudoeste 12 Sudoeste 0 -- -- 46
2019-06-24 02:00:00 18.8 0 Calma 6 Noroeste 0 -- -- 47
2019-06-24 01:00:00 19.6 0 Calma 8 Sur 0 -- -- 54
2019-06-24 00:00:00 20.7 2 Sudeste 13 Este 0 -- -- 41
2019-06-23 23:00:00 22.5 3 Norte 9 Sudoeste 0 -- -- 35
2019-06-23 22:00:00 23.9 4 Oeste 9 Este 0 -- -- 31
2019-06-23 21:00:00 25.4 5 Nordeste 22 Este 0 -- -- 30
2019-06-23 20:00:00 27.6 9 Este 25 Este 0 -- -- 38
2019-06-23 19:00:00 29.3 12 Nordeste 22 Nordeste 0 -- -- 34
2019-06-23 18:00:00 30.7 12 Este 25 Este 0 -- -- 25
2019-06-23 17:00:00 31.5 12 Nordeste 24 Nordeste 0 -- -- 32
2019-06-23 16:00:00 31.9 8 Norte 24 Este 0 -- -- 36
2019-06-23 15:00:00 30.8 14 Nordeste 22 Nordeste 0 -- -- 39
2019-06-23 14:00:00 30.9 10 Nordeste 23 Este 0 -- -- 34
2019-06-23 13:00:00 29.5 11 Este 19 Nordeste 0 -- -- 34
2019-06-23 12:00:00 27.3 10 Nordeste 20 Este 0 -- -- 41
2019-06-23 11:00:00 25.2 10 Este 15 Este 0 -- -- 50
2019-06-23 10:00:00 22.8 7 Este 10 Este 0 -- -- 57
2019-06-23 09:00:00 22.5 0 Calma 5 Este 0 -- -- 48
2019-06-23 08:00:00 18.7 3 Sudeste 6 Sudoeste 0 -- -- 56
2019-06-23 07:00:00 16.2 6 Oeste 13 Sudoeste 0 -- -- 61
2019-06-23 06:00:00 16.3 5 Sudoeste 14 Sudoeste 0 -- -- 66
2019-06-23 05:00:00 16.7 8 Sudoeste 15 Sudoeste 0 -- -- 68
2019-06-23 04:00:00 17.2 6 Sudoeste 13 Sudoeste 0 -- -- 69
2019-06-23 03:00:00 18 6 Sudoeste 12 Sudoeste 0 -- -- 71
2019-06-23 02:00:00 19 2 Sudoeste 5 Sur 0 -- -- 70
2019-06-23 01:00:00 19.7 0 Calma 8 Oeste 0 -- -- 71
2019-06-23 00:00:00 21.2 2 Sudoeste 9 Sudoeste 0 -- -- 69
2019-06-22 23:00:00 21.9 0 Calma 9 Norte 0 -- -- 64
2019-06-22 22:00:00 22.9 5 Norte 12 Nordeste 0 -- -- 68
2019-06-22 21:00:00 23.8 6 Este 13 Este 0 -- -- 66
2019-06-22 20:00:00 25.5 9 Este 18 Nordeste 0 -- -- 61
2019-06-22 19:00:00 27.1 11 Nordeste 20 Nordeste 0 -- -- 55
2019-06-22 18:00:00 28.4 10 Nordeste 19 Nordeste 0 -- -- 50
2019-06-22 17:00:00 28.1 10 Nordeste 22 Este 0 -- -- 50
2019-06-22 16:00:00 27.8 11 Nordeste 28 Este 0 -- -- 50
2019-06-22 15:00:00 27.2 12 Nordeste 23 Este 0 -- -- 51
2019-06-22 14:00:00 27.2 10 Nordeste 26 Este 0 -- -- 51
2019-06-22 13:00:00 26.2 10 Nordeste 21 Este 0 -- -- 51
2019-06-22 12:00:00 24.9 10 Nordeste 20 Este 0 -- -- 53
2019-06-22 11:00:00 22.7 10 Este 15 Este 0 -- -- 56
2019-06-22 10:00:00 21.4 7 Este 12 Este 0 -- -- 61
2019-06-22 09:00:00 19.5 6 Este 8 Este 0 -- -- 69
2019-06-22 08:00:00 18.6 3 Sudeste 5 Sudoeste 0 -- -- 69
2019-06-22 07:00:00 16.5 0 Calma 4 Sudoeste 0 -- -- 76
2019-06-22 06:00:00 16.6 0 Calma 6 Sur 0 -- -- 75
2019-06-22 05:00:00 16.7 0 Calma 3 Noroeste 0 -- -- 74
2019-06-22 04:00:00 17.5 2 Nordeste 4 Sudoeste 0 -- -- 71
2019-06-22 03:00:00 18.5 4 Sudoeste 10 Sudoeste 0 -- -- 65
2019-06-22 02:00:00 18.6 4 Sudoeste 7 Oeste 0 -- -- 63
2019-06-22 01:00:00 18.7 2 Sur 7 Sudoeste 0 -- -- 63
2019-06-22 00:00:00 18.5 4 Sur 7 Sur 0 -- -- 68
2019-06-21 23:00:00 18.9 3 Este 12 Este 0 -- -- 71
2019-06-21 22:00:00 20 6 Nordeste 20 Nordeste 0 -- -- 66
2019-06-21 21:00:00 21.6 9 Nordeste 22 Nordeste 0 -- -- 55
2019-06-21 20:00:00 23.2 10 Nordeste 23 Nordeste 0 -- -- 54
2019-06-21 19:00:00 25 11 Nordeste 24 Nordeste 0 -- -- 53
2019-06-21 18:00:00 25.5 14 Nordeste 29 Nordeste 0 -- -- 54
2019-06-21 17:00:00 26.3 14 Nordeste 30 Este 0 -- -- 52
2019-06-21 16:00:00 25.9 15 Este 26 Este 0 -- -- 54
2019-06-21 15:00:00 24.9 11 Este 26 Este 0 -- -- 56
2019-06-21 14:00:00 24.6 11 Este 25 Nordeste 0 -- -- 56
2019-06-21 13:00:00 23.2 10 Nordeste 21 Este 0 -- -- 59
2019-06-21 12:00:00 22.8 8 Este 23 Este 0 -- -- 61
2019-06-21 11:00:00 20.9 10 Este 23 Este 0 -- -- 66
2019-06-21 10:00:00 20.1 7 Sudeste 18 Este 0 -- -- 69
2019-06-21 09:00:00 19.6 7 Este 17 Nordeste 0 -- -- 71
2019-06-21 08:00:00 17.8 4 Este 10 Este 0 -- -- 83
2019-06-21 07:00:00 17.7 4 Este 9 Este 0 -- -- 85
2019-06-21 06:00:00 17.7 5 Este 9 Nordeste 0 -- -- 87
2019-06-21 05:00:00 17.6 5 Este 9 Sudeste 0 -- -- 90
2019-06-21 04:00:00 17.9 6 Este 8 Este 0 -- -- 91
2019-06-21 03:00:00 18.2 5 Este 8 Nordeste 0 -- -- 88
2019-06-21 02:00:00 18.2 3 Este 7 Nordeste 0 -- -- 88
2019-06-21 01:00:00 18.3 2 Este 6 Este 0 -- -- 87
2019-06-21 00:00:00 19.3 4 Este 7 Este 0 -- -- 77
2019-06-20 23:00:00 20.5 0 Calma 8 Este 0 -- -- 74
2019-06-20 22:00:00 21.2 5 Este 12 Este 0 -- -- 73
2019-06-20 21:00:00 22.7 6 Este 14 Nordeste 0 -- -- 67
2019-06-20 20:00:00 23.8 8 Nordeste 23 Este 0 -- -- 63
2019-06-20 19:00:00 25.3 13 Nordeste 23 Nordeste 0 -- -- 57
2019-06-20 18:00:00 26.4 12 Nordeste 26 Nordeste 0 -- -- 54
2019-06-20 17:00:00 26.9 13 Nordeste 28 Este 0 -- -- 53
2019-06-20 16:00:00 27.1 14 Nordeste 28 Nordeste 0 -- -- 53
2019-06-20 15:00:00 27.4 14 Nordeste 33 Nordeste 0 -- -- 50
2019-06-20 14:00:00 27.4 15 Nordeste 36 Este 0 -- -- 47
2019-06-20 13:00:00 27.2 13 Nordeste 26 Nordeste 0 -- -- 44
2019-06-20 12:00:00 26.3 12 Nordeste 24 Nordeste 0 -- -- 44
2019-06-20 11:00:00 25.1 9 Nordeste 18 Este 0 -- -- 41
2019-06-20 10:00:00 24.2 5 Este 8 Este 0 -- -- 42
2019-06-20 09:00:00 21.5 2 Sudeste 9 Sudoeste 0 -- -- 46
2019-06-20 08:00:00 20.3 6 Sudoeste 12 Oeste 0 -- -- 46
2019-06-20 07:00:00 19.3 9 Sudoeste 14 Sudoeste 0 -- -- 48
2019-06-20 06:00:00 19.6 7 Sudoeste 12 Sudoeste 0 -- -- 47
2019-06-20 05:00:00 20.3 8 Sudoeste 19 Sudoeste 0 -- -- 45
2019-06-20 04:00:00 21.5 14 Sudoeste 19 Sudoeste 0 -- -- 40
2019-06-20 03:00:00 21.2 10 Sudoeste 18 Sudoeste 0 -- -- 41
2019-06-20 02:00:00 21.4 13 Sudoeste 21 Sudoeste 0 -- -- 42
2019-06-20 01:00:00 21.8 13 Sudoeste 24 Sudoeste 0 -- -- 42
2019-06-20 00:00:00 22.9 9 Sudoeste 15 Sudoeste 0 -- -- 39
2019-06-19 23:00:00 23.9 8 Sudoeste 17 Sudoeste 0 -- -- 37
2019-06-19 22:00:00 25.4 7 Sudoeste 14 Sudoeste 0 -- -- 34
2019-06-19 21:00:00 26.6 8 Sudoeste 26 Sudoeste 0 -- -- 31
2019-06-19 20:00:00 28.2 12 Sudoeste 27 Sudoeste 0 -- -- 29
2019-06-19 19:00:00 29.1 15 Sur 39 Sur 0 -- -- 29
2019-06-19 18:00:00 30.5 14 Sur 35 Sur 0 -- -- 29
2019-06-19 17:00:00 31 13 Sur 31 Sur 0 -- -- 31
2019-06-19 16:00:00 31.1 12 Sur -- -- -- -- -- 29
2019-06-19 15:00:00 31.5 10 Sur -- -- -- -- -- 27
2019-06-19 14:00:00 32.1 8 Sur 21 Sudoeste 0 -- -- 21
2019-06-19 13:00:00 30.3 9 Nordeste 21 Este -- -- -- 28
2019-06-19 12:00:00 28.8 8 Este 19 Este 0 -- -- 28
2019-06-19 11:00:00 27.6 11 Nordeste 17 Nordeste 0 -- -- 30
2019-06-19 10:00:00 27 5 Sur 18 Sudoeste 0 -- -- 32
2019-06-19 09:00:00 24.1 13 Sudoeste 19 Sudoeste 0 -- -- 35
2019-06-19 08:00:00 22.3 8 Sudoeste 13 Sudoeste 0 -- -- 33
2019-06-19 07:00:00 21.3 6 Sur 15 Sudoeste 0 -- -- 32
2019-06-19 06:00:00 20.8 6 Sudoeste 13 Sur 0 -- -- 34
2019-06-19 05:00:00 19.9 8 Sudoeste 15 Oeste 0 -- -- 39
2019-06-19 04:00:00 20.4 5 Sudoeste 18 Sudoeste 0 -- -- 36
2019-06-19 03:00:00 20.5 13 Sudoeste 19 Sudoeste 0 -- -- 33
2019-06-19 02:00:00 21.6 9 Sudoeste 16 Sudoeste 0 -- -- 31
2019-06-19 01:00:00 21.8 5 Oeste 15 Sudoeste 0 -- -- 31
2019-06-19 00:00:00 22.6 8 Sudoeste 15 Sudoeste 0 -- -- 30
2019-06-18 23:00:00 23.4 6 Sudoeste 13 Sudoeste 0 -- -- 30
2019-06-18 22:00:00 24.2 7 Sudoeste 14 Sudoeste 0 -- -- 26
2019-06-18 21:00:00 25.3 7 Sudoeste 18 Sudoeste 0 -- -- 24
2019-06-18 20:00:00 27.4 10 Sudoeste 29 Sur 0 -- -- 20
2019-06-18 19:00:00 27.6 15 Sur 28 Sur 0 -- -- 23
2019-06-18 18:00:00 28.8 11 Sudoeste 29 Sur 0 -- -- 24
2019-06-18 17:00:00 29.5 15 Sur 34 Sur 0 -- -- 22
2019-06-18 16:00:00 28.7 16 Sur 33 Sur 0 -- -- 26
2019-06-18 15:00:00 29.6 13 Sur 32 Sudeste 0 -- -- 26
2019-06-18 14:00:00 28.8 16 Sur 32 Sur 0 -- -- 23
2019-06-18 13:00:00 29.6 15 Sur 28 Sur 0 -- -- 19
2019-06-18 12:00:00 29.9 6 Este 15 Este 0 -- -- 21
2019-06-18 11:00:00 27.5 8 Este 12 Este 0 -- -- 26
2019-06-18 10:00:00 25.1 5 Este 9 Este 0 -- -- 29
2019-06-18 09:00:00 22.4 3 Este 9 Oeste 0 -- -- 33
2019-06-18 08:00:00 20.2 5 Oeste 13 Sudoeste 0 -- -- 34
2019-06-18 07:00:00 16.2 0 Calma 13 Sudoeste 0 -- -- 42
2019-06-18 06:00:00 17.7 10 Sudoeste 17 Sudoeste 0 -- -- 36
2019-06-18 05:00:00 16.8 4 Oeste 12 Sudoeste 0 -- -- 39
2019-06-18 04:00:00 17.6 5 Oeste 13 Oeste 0 -- -- 37
2019-06-18 03:00:00 19.1 7 Sudoeste 15 Oeste 0 -- -- 33
2019-06-18 02:00:00 18.8 5 Oeste 16 Sudoeste 0 -- -- 34
2019-06-18 01:00:00 20.5 9 Sudoeste 15 Sudoeste 0 -- -- 31
2019-06-18 00:00:00 20.7 6 Sudoeste 14 Sudoeste 0 -- -- 35
2019-06-17 23:00:00 21.3 5 Sudoeste 13 Sudoeste 0 -- -- 37
2019-06-17 22:00:00 22.6 7 Sudoeste 16 Sudoeste 0 -- -- 34
2019-06-17 21:00:00 24 8 Sudoeste 29 Sudoeste 0 -- -- 34
2019-06-17 20:00:00 25.7 13 Sudoeste 28 Sudoeste 0 -- -- 28
2019-06-17 19:00:00 27.1 12 Sur 32 Sur 0 -- -- 29
2019-06-17 18:00:00 27.8 14 Sur 30 Sudoeste 0 -- -- 29
2019-06-17 17:00:00 28.2 13 Sur 37 Sur 0 -- -- 31
2019-06-17 16:00:00 28.3 17 Sur 34 Sur 0 -- -- 32
2019-06-17 15:00:00 29.3 13 Sur 25 Sudoeste 0 -- -- 30
2019-06-17 14:00:00 29.5 12 Sur 27 Sur 0 -- -- 29
2019-06-17 13:00:00 29.9 10 Sudeste 17 Este 0 -- -- 22
2019-06-17 12:00:00 28.6 10 Este 18 Este 0 -- -- 24
2019-06-17 11:00:00 26 9 Este 14 Nordeste 0 -- -- 33
2019-06-17 10:00:00 22.8 6 Este 9 Este 0 -- -- 42
2019-06-17 09:00:00 23.1 0 Calma 13 Sudoeste 0 -- -- 35
2019-06-17 08:00:00 18.6 9 Sudoeste 17 Sudoeste 0 -- -- 40
2019-06-17 07:00:00 15.9 10 Sudoeste 20 Sudoeste 0 -- -- 47
2019-06-17 06:00:00 15.4 7 Sudoeste 21 Sudoeste 0 -- -- 55
2019-06-17 05:00:00 15.6 9 Sudoeste 17 Sudoeste 0 -- -- 65
2019-06-17 04:00:00 16 8 Oeste 18 Sudoeste 0 -- -- 71
2019-06-17 03:00:00 16 10 Sudoeste 14 Sudoeste 0 -- -- 73
2019-06-17 02:00:00 16.5 5 Sudoeste 10 Oeste 0 -- -- 74
2019-06-17 01:00:00 17.8 6 Sudoeste 12 Sudoeste 0 -- -- 71
2019-06-17 00:00:00 18.5 6 Sudoeste 14 Sudoeste 0 -- -- 70
2019-06-16 23:00:00 19.6 6 Sur 14 Sudoeste 0 -- -- 67
2019-06-16 22:00:00 20.1 0 Calma 8 Este 0 -- -- 67
2019-06-16 21:00:00 21.2 4 Este 11 Nordeste 0 -- -- 61
2019-06-16 20:00:00 21.6 7 Nordeste 15 Este 0 -- -- 60
2019-06-16 19:00:00 22.4 8 Este 19 Nordeste 0 -- -- 56
2019-06-16 18:00:00 22.1 8 Nordeste 20 Nordeste 0 -- -- 60
2019-06-16 17:00:00 23.1 8 Nordeste 23 Nordeste 0 -- -- 56
2019-06-16 16:00:00 23.9 12 Nordeste 25 Este 0 -- -- 52
2019-06-16 15:00:00 24.2 12 Nordeste 22 Nordeste 0 -- -- 51
2019-06-16 14:00:00 23.8 9 Nordeste 23 Este 0 -- -- 48
2019-06-16 13:00:00 22.4 9 Nordeste 25 Este 0 -- -- 54
2019-06-16 12:00:00 20.8 8 Nordeste 17 Nordeste 0 -- -- 58
2019-06-16 11:00:00 19.2 9 Este 21 Este 0 -- -- 63
2019-06-16 10:00:00 19.1 9 Este 14 Este 0 -- -- 64
2019-06-16 09:00:00 17.9 5 Este 9 Este 0 -- -- 68
2019-06-16 08:00:00 16.4 0 Calma 8 Sudoeste 0 -- -- 66
2019-06-16 07:00:00 13.8 5 Sudoeste 8 Sudoeste 0 -- -- 70
2019-06-16 06:00:00 13.9 3 Oeste 6 Oeste 0 -- -- 67
2019-06-16 05:00:00 13.8 0 Calma 9 Sudoeste 0 -- -- 66
2019-06-16 04:00:00 15.3 3 Sudoeste 11 Sudoeste 0 -- -- 60
2019-06-16 03:00:00 16 6 Sudoeste 10 Sudoeste 0 -- -- 57
2019-06-16 02:00:00 17.1 5 Oeste 12 Sudoeste 0 -- -- 53
2019-06-16 01:00:00 18.1 5 Sudoeste 13 Sudoeste 0 -- -- 50
2019-06-16 00:00:00 19 5 Sudoeste 14 Sur 0 -- -- 49
2019-06-15 23:00:00 19.6 8 Sudoeste 20 Sudoeste 0 -- -- 49
2019-06-15 22:00:00 20.6 8 Sur 23 Sur 0 -- -- 46
2019-06-15 21:00:00 22.3 10 Sudoeste 25 Sudoeste 0 -- -- 42
2019-06-15 20:00:00 25.5 8 Sudoeste 27 Sur 0 -- -- 38
2019-06-15 19:00:00 27.4 8 Sur 22 Este 0 -- -- 33
2019-06-15 18:00:00 28.9 9 Sudoeste 23 Sudoeste 0 -- -- 25
2019-06-15 17:00:00 29.9 10 Sudoeste 24 Sudoeste 0 -- -- 19
2019-06-15 16:00:00 29.1 12 Sudoeste 30 Oeste 0 -- -- 17
2019-06-15 15:00:00 28.8 12 Sudoeste 31 Oeste 0 -- -- 16
2019-06-15 14:00:00 27.7 12 Sudoeste 26 Sudoeste 0 -- -- 20
2019-06-15 13:00:00 26.5 10 Oeste 23 Sudoeste 0 -- -- 25
2019-06-15 12:00:00 25.5 6 Oeste 18 Sudoeste 0 -- -- 27
2019-06-15 11:00:00 23.2 9 Oeste 22 Oeste 0 -- -- 31
2019-06-15 10:00:00 21.8 7 Oeste 26 Oeste 0 -- -- 33
2019-06-15 09:00:00 19.6 6 Sudoeste 33 Oeste 0 -- -- 37
2019-06-15 08:00:00 17.5 7 Sudoeste 16 Sudoeste 0 -- -- 41
2019-06-15 07:00:00 16.8 8 Sudoeste 22 Oeste 0 -- -- 41
2019-06-15 06:00:00 17.5 7 Sur 19 Sudoeste 0 -- -- 39
2019-06-15 05:00:00 18.1 10 Sur 26 Sudoeste 0 -- -- 38
2019-06-15 04:00:00 18.7 7 Sudoeste 23 Sudoeste 0 -- -- 36
2019-06-15 03:00:00 19.7 6 Sudoeste 29 Sudoeste 0 -- -- 31
2019-06-15 02:00:00 20.5 5 Sudoeste 16 Sudoeste 0 -- -- 30
2019-06-15 01:00:00 21.4 7 Sur 15 Sur 0 -- -- 38
2019-06-15 00:00:00 21.8 8 Sudoeste 17 Sur 0 -- -- 50
2019-06-14 23:00:00 22.1 7 Sur 13 Sur 0 -- -- 52
2019-06-14 22:00:00 22.7 7 Sudoeste 13 Sudoeste 0 -- -- 51
2019-06-14 21:00:00 23.5 8 Sudoeste 27 Sur 0 -- -- 48
2019-06-14 20:00:00 24.1 14 Sudoeste 32 Sudoeste 0 -- -- 47
2019-06-14 19:00:00 25.3 14 Sur 34 Sur 0 -- -- 48
2019-06-14 18:00:00 26.6 12 Sur 34 Sur 0 -- -- 47
2019-06-14 17:00:00 27 16 Sur 39 Sur 0 -- -- 46
2019-06-14 16:00:00 26.4 17 Sur 34 Sur 0 -- -- 48
2019-06-14 15:00:00 29.5 11 Oeste 36 Sudoeste 0 -- -- 27
2019-06-14 14:00:00 28.5 9 Oeste 30 Sudoeste 0 -- -- 29
2019-06-14 13:00:00 26.8 11 Sudoeste 23 Sudoeste 0 -- -- 32
2019-06-14 12:00:00 24.1 7 Sudoeste 24 Sudoeste 0 -- -- 41
2019-06-14 11:00:00 20.9 13 Sudoeste 24 Sudoeste 0 -- -- 56
2019-06-14 10:00:00 20.2 4 Sudeste 9 Este 0 -- -- 51
2019-06-14 09:00:00 19 2 Este 6 Nordeste 0 -- -- 48
2019-06-14 08:00:00 14.7 2 Este 9 Sur 0 -- -- 59
2019-06-14 07:00:00 14.2 5 Sudoeste 13 Sur 0 -- -- 57
2019-06-14 06:00:00 14 7 Noroeste 12 Norte 0 -- -- 60
2019-06-14 05:00:00 13.5 6 Sur 11 Sur 0 -- -- 60
2019-06-14 04:00:00 13.5 4 Sudoeste 12 Sudoeste 0 -- -- 64
2019-06-14 03:00:00 13.8 5 Sudoeste 10 Sudoeste 0 -- -- 62
2019-06-14 02:00:00 13.8 3 Sudoeste 7 Sudoeste 0 -- -- 72
2019-06-14 01:00:00 14.2 3 Sudoeste 6 Sudoeste 0 -- -- 74
2019-06-14 00:00:00 14.3 4 Sur 6 Sur 0 -- -- 75
2019-06-13 23:00:00 15 3 Sur 11 Nordeste 0 -- -- 75
2019-06-13 22:00:00 16.1 6 Nordeste 17 Nordeste 0 -- -- 72
2019-06-13 21:00:00 16.9 10 Nordeste 18 Nordeste 0 -- -- 67
2019-06-13 20:00:00 17.8 11 Nordeste 23 Este 0 -- -- 66
2019-06-13 19:00:00 18.7 14 Nordeste 27 Este 0 -- -- 64
2019-06-13 18:00:00 19 17 Nordeste 31 Este 0 -- -- 64
2019-06-13 17:00:00 19.6 14 Nordeste 26 Norte 0 -- -- 62
2019-06-13 16:00:00 19.7 14 Nordeste 28 Nordeste 0 -- -- 63
2019-06-13 15:00:00 18.6 15 Nordeste 26 Nordeste 0 -- -- 69
2019-06-13 14:00:00 19.2 13 Nordeste 28 Norte 0 -- -- 69
2019-06-13 13:00:00 20 14 Nordeste 32 Nordeste 0 -- -- 65
2019-06-13 12:00:00 20.1 14 Nordeste 25 Nordeste 0 -- -- 65
2019-06-13 11:00:00 18.7 9 Nordeste 22 Este 0 -- -- 73
2019-06-13 10:00:00 17 14 Este 23 Nordeste 0 -- -- 79
2019-06-13 09:00:00 17.2 6 Nordeste 12 Este 0 -- -- 78
2019-06-13 08:00:00 15.2 4 Este 8 Nordeste 0 -- -- 88
2019-06-13 07:00:00 14.7 0 Calma 4 Este 0 -- -- 86
2019-06-13 06:00:00 14.6 2 Sur 5 Sur 0 -- -- 84
2019-06-13 05:00:00 15.1 2 Nordeste 4 Sur 0 -- -- 81
2019-06-13 04:00:00 14.4 3 Sur 7 Oeste 0 -- -- 80
2019-06-13 03:00:00 15 2 Sur 9 Sudoeste 0 -- -- 77
2019-06-13 02:00:00 14.7 4 Sudoeste 8 Sudoeste 0 -- -- 77
2019-06-13 01:00:00 14.5 3 Sudoeste 8 Noroeste 0 -- -- 78
2019-06-13 00:00:00 15.1 3 Noroeste 10 Nordeste 0 -- -- 79
2019-06-12 23:00:00 15.8 4 Este 11 Noroeste 0 -- -- 76
2019-06-12 22:00:00 16.3 5 Noroeste 10 Sur 0 -- -- 74
2019-06-12 21:00:00 18.2 5 Sudeste 14 Sudeste 0 -- -- 64
2019-06-12 20:00:00 20 6 Este 17 Sudeste 0 -- -- 54
2019-06-12 19:00:00 19.8 12 Sudeste 22 Sudeste 0 -- -- 53
2019-06-12 18:00:00 21.4 13 Este 23 Nordeste 0 -- -- 46
2019-06-12 17:00:00 21.7 11 Nordeste 23 Nordeste 0 -- -- 46
2019-06-12 16:00:00 20.6 14 Nordeste 28 Este 0 -- -- 51
2019-06-12 15:00:00 21.8 14 Nordeste 24 Nordeste 0 -- -- 47
2019-06-12 14:00:00 21.7 6 Este 24 Nordeste 0 -- -- 45
2019-06-12 13:00:00 21 6 Norte 17 Este 0 -- -- 46
2019-06-12 12:00:00 18.1 5 Este 18 Este 0 -- -- 54
2019-06-12 11:00:00 16.5 9 Este 18 Este 0.2 -- -- 63
2019-06-12 10:00:00 15.2 6 Nordeste 15 Este 0 -- -- 72
2019-06-12 09:00:00 14.6 2 Este 5 Sudeste 0 -- -- 73
2019-06-12 08:00:00 11.8 2 Sudoeste 9 Sudoeste 0 -- -- 77
2019-06-12 07:00:00 10.7 4 Sudoeste 9 Sudoeste 0 -- -- 81
2019-06-12 06:00:00 10.1 2 Oeste 9 Sudoeste 0 -- -- 86
2019-06-12 05:00:00 10.3 5 Sudoeste 9 Sudoeste 0 -- -- 84
2019-06-12 04:00:00 10.4 0 Calma 6 Sudoeste 0 -- -- 86
2019-06-12 03:00:00 10.7 2 Oeste 10 Sur 0 -- -- 88
2019-06-12 02:00:00 10.8 3 Sudoeste 8 Oeste 0 -- -- 92
2019-06-12 01:00:00 11.2 4 Sur 6 Sur 0 -- -- 92
2019-06-12 00:00:00 11.7 0 Calma 5 Sur 0 -- -- 91
2019-06-11 23:00:00 12.3 2 Este 8 Nordeste 0 -- -- 91
2019-06-11 22:00:00 12.4 4 Nordeste 9 Este 0.4 -- -- 93
2019-06-11 21:00:00 12.4 5 Este 19 Este 0.2 -- -- 94
2019-06-11 20:00:00 12.3 10 Nordeste 24 Nordeste 0.2 -- -- 93
2019-06-11 19:00:00 13 12 Nordeste 31 Nordeste 0.4 -- -- 90
2019-06-11 18:00:00 14.9 15 Nordeste 29 Nordeste 0 -- -- 82
2019-06-11 17:00:00 16.4 14 Nordeste 30 Nordeste 0 -- -- 77
2019-06-11 16:00:00 18.5 16 Nordeste 28 Nordeste 0 -- -- 71
2019-06-11 15:00:00 20.8 15 Nordeste 31 Este 0 -- -- 62
2019-06-11 14:00:00 22.9 16 Nordeste 30 Nordeste 0 -- -- 52
2019-06-11 13:00:00 22.6 11 Nordeste 26 Nordeste 0 -- -- 50
2019-06-11 12:00:00 21.9 15 Nordeste 27 Nordeste 0 -- -- 55
2019-06-11 11:00:00 21.1 9 Nordeste 18 Este 0 -- -- 58
2019-06-11 10:00:00 18.7 6 Este 15 Este 0 -- -- 69
2019-06-11 09:00:00 16.8 7 Este 10 Este 0 -- -- 76
2019-06-11 08:00:00 16.5 0 Calma 5 Sudoeste 0 -- -- 65
2019-06-11 07:00:00 13.4 0 Calma 4 Oeste 0 -- -- 65
2019-06-11 06:00:00 13.6 0 Calma 5 Oeste 0 -- -- 70
2019-06-11 05:00:00 14.1 0 Calma 5 Noroeste 0 -- -- 77
2019-06-11 04:00:00 15.1 4 Este 7 Sudeste 0 -- -- 77
2019-06-11 03:00:00 17.2 3 Oeste 7 Oeste 0 -- -- 45
2019-06-11 02:00:00 19.5 5 Sudoeste 10 Sudoeste 0 -- -- 38
2019-06-11 01:00:00 19.8 6 Sudoeste 16 Sudoeste 0 -- -- 39
2019-06-11 00:00:00 20.2 8 Sur 14 Sudoeste 0 -- -- 42
2019-06-10 23:00:00 21 5 Sudoeste 17 Sudoeste 0 -- -- 46
2019-06-10 22:00:00 21.1 7 Sudoeste 15 Sudoeste 0 -- -- 48
2019-06-10 21:00:00 21.5 8 Sudoeste 30 Sudoeste 0 -- -- 50
2019-06-10 20:00:00 21.7 10 Sur 31 Sudoeste 0 -- -- 51
2019-06-10 19:00:00 23.4 9 Sudeste 32 Sudeste 0 -- -- 46
2019-06-10 18:00:00 25 13 Sudeste 30 Sudeste 0 -- -- 44
2019-06-10 17:00:00 26.6 14 Este 32 Norte 0 -- -- 38
2019-06-10 16:00:00 29.2 10 Oeste 28 Oeste 0 -- -- 18
2019-06-10 15:00:00 28.7 8 Norte 23 Este 0 -- -- 25
2019-06-10 14:00:00 26.9 9 Nordeste 22 Nordeste 0 -- -- 26
2019-06-10 13:00:00 25.6 14 Este 24 Este 0 -- -- 27
2019-06-10 12:00:00 24.6 10 Este 19 Nordeste 0 -- -- 28
2019-06-10 11:00:00 22.9 10 Este 19 Este 0 -- -- 31
2019-06-10 10:00:00 22.2 10 Este 16 Este 0 -- -- 33
2019-06-10 09:00:00 20.3 6 Nordeste 15 Sudoeste 0 -- -- 38
2019-06-10 08:00:00 20.4 8 Oeste 21 Sudoeste 0 -- -- 33
2019-06-10 07:00:00 19.7 10 Sudoeste 18 Sudoeste 0 -- -- 33
2019-06-10 06:00:00 19.4 5 Sur 13 Sudoeste 0 -- -- 32
2019-06-10 05:00:00 19.8 5 Sur 18 Noroeste 0 -- -- 32
2019-06-10 04:00:00 19.9 3 Sudeste 24 Oeste 0 -- -- 35
2019-06-10 03:00:00 21.2 9 Oeste 28 Oeste 0 -- -- 44
2019-06-10 02:00:00 19.7 9 Sudoeste 18 Sudoeste 0 -- -- 60
2019-06-10 01:00:00 20 8 Sudoeste 14 Sudoeste 0 -- -- 61
2019-06-10 00:00:00 20.1 5 Sur 16 Sudoeste 0 -- -- 61
2019-06-09 23:00:00 20.5 7 Sur 14 Sudoeste 0 -- -- 61
2019-06-09 22:00:00 22.1 6 Sudoeste 13 Sur 0 -- -- 57
2019-06-09 21:00:00 23.7 5 Sudoeste 20 Sudoeste 0 -- -- 53
2019-06-09 20:00:00 27.1 9 Oeste 21 Sudoeste 0 -- -- 31
2019-06-09 19:00:00 26.5 7 Nordeste 15 Este 0 -- -- 40
2019-06-09 18:00:00 26.6 8 Nordeste 18 Nordeste 0 -- -- 39
2019-06-09 17:00:00 25.6 10 Este 19 Sudeste 0 -- -- 40
2019-06-09 16:00:00 25.2 6 Nordeste 17 Nordeste 0 -- -- 43
2019-06-09 15:00:00 22.6 6 Este 12 Este 0 -- -- 49
2019-06-09 14:00:00 21.4 5 Nordeste 12 Este 0 -- -- 54
2019-06-09 13:00:00 20.9 5 Nordeste 10 Nordeste 0 -- -- 55
2019-06-09 12:00:00 20.3 5 Este 10 Este 0 -- -- 58
2019-06-09 11:00:00 18.7 4 Este 9 Este 0 -- -- 65
2019-06-09 10:00:00 17 6 Este 11 Este 0 -- -- 70
2019-06-09 09:00:00 16 3 Sudeste 10 Este 0 -- -- 73
2019-06-09 08:00:00 14.1 3 Nordeste 6 Este 0 -- -- 82
2019-06-09 07:00:00 14.1 3 Sudoeste 13 Sudeste 0 -- -- 80
2019-06-09 06:00:00 13.7 0 Calma 13 Sudoeste 0 -- -- 84
2019-06-09 05:00:00 13.3 3 Sur 10 Sudoeste 0 -- -- 87
2019-06-09 04:00:00 13.6 0 Calma 4 Sur 0 -- -- 88
2019-06-09 03:00:00 14 2 Sur 5 Sudeste 0 -- -- 87
2019-06-09 02:00:00 14.5 0 Calma 5 Este 0 -- -- 86
2019-06-09 01:00:00 14.7 3 Este 6 Este 0 -- -- 84
2019-06-09 00:00:00 14.8 3 Este 6 Sudeste 0 -- -- 84
2019-06-08 23:00:00 15 3 Sudeste 11 Nordeste 0 -- -- 83
2019-06-08 22:00:00 15.8 5 Nordeste 12 Nordeste 0 -- -- 79
2019-06-08 21:00:00 16.9 6 Nordeste 18 Nordeste 0 -- -- 74
2019-06-08 20:00:00 17.6 10 Nordeste 18 Este 0 -- -- 70
2019-06-08 19:00:00 18.7 9 Nordeste 22 Nordeste 0 -- -- 66
2019-06-08 18:00:00 18.6 11 Nordeste 22 Nordeste 0 -- -- 66
2019-06-08 17:00:00 17.8 12 Nordeste 24 Nordeste 0 -- -- 69
2019-06-08 16:00:00 18 12 Nordeste 25 Nordeste 0 -- -- 70
2019-06-08 15:00:00 18.1 12 Nordeste 29 Nordeste 0 -- -- 71
2019-06-08 14:00:00 18.7 14 Nordeste 30 Nordeste 0 -- -- 67
2019-06-08 13:00:00 18.9 17 Nordeste 28 Nordeste 0 -- -- 66
2019-06-08 12:00:00 19 15 Nordeste 28 Norte 0 -- -- 67
2019-06-08 11:00:00 18.6 13 Nordeste 30 Norte 0 -- -- 72
2019-06-08 10:00:00 18.4 14 Nordeste 24 Este 0 -- -- 70
2019-06-08 09:00:00 17.3 10 Este 18 Nordeste 0 -- -- 77
2019-06-08 08:00:00 14.6 2 Sudoeste 9 Sudoeste 0 -- -- 73
2019-06-08 07:00:00 13.6 6 Sudoeste 12 Sudoeste 0 -- -- 72
2019-06-08 06:00:00 13.7 2 Sudeste 8 Sudoeste 0 -- -- 73
2019-06-08 05:00:00 14.4 4 Sudoeste 14 Oeste 0 -- -- 71
2019-06-08 04:00:00 15.6 6 Oeste 10 Oeste 0 -- -- 62
2019-06-08 03:00:00 15.7 0 Calma 6 Oeste 0 -- -- 63
2019-06-08 02:00:00 16.6 3 Sudoeste 13 Sudoeste 0 -- -- 60
2019-06-08 01:00:00 17.3 7 Sudoeste 15 Sudoeste 0 -- -- 59
2019-06-08 00:00:00 18.7 8 Sudoeste 14 Sudoeste 0 -- -- 58
2019-06-07 23:00:00 20.1 5 Sudoeste 10 Sudoeste 0 -- -- 54
2019-06-07 22:00:00 21.2 0 Calma 10 Sudoeste 0 -- -- 51
2019-06-07 21:00:00 23.1 4 Nordeste 23 Este 0 -- -- 43
2019-06-07 20:00:00 25 11 Nordeste 24 Este 0 -- -- 38
2019-06-07 19:00:00 27.6 6 Sur 22 Oeste 0 -- -- 29
2019-06-07 18:00:00 28.4 6 Norte 23 Sudoeste 0 -- -- 29
2019-06-07 17:00:00 27.6 9 Sudoeste 27 Sudoeste 0 -- -- 30
2019-06-07 16:00:00 27.6 10 Oeste 26 Oeste 0 -- -- 30
2019-06-07 15:00:00 27.3 10 Oeste 30 Oeste 0 -- -- 32
2019-06-07 14:00:00 26.3 11 Oeste 28 Sudoeste 0 -- -- 32
2019-06-07 13:00:00 25.8 12 Oeste 31 Sudoeste 0 -- -- 34
2019-06-07 12:00:00 24.5 10 Oeste 29 Sudoeste 0 -- -- 38
2019-06-07 11:00:00 22.8 14 Oeste 31 Oeste 0 -- -- 42
2019-06-07 10:00:00 21.8 11 Oeste 31 Oeste 0 -- -- 42
2019-06-07 09:00:00 20.4 6 Oeste 19 Oeste 0 -- -- 42
2019-06-07 08:00:00 17.5 9 Sudoeste 18 Sudoeste 0 -- -- 44
2019-06-07 07:00:00 14.3 9 Sudoeste 15 Sudoeste 0 -- -- 54
2019-06-07 06:00:00 14.8 8 Sudoeste 14 Oeste 0 -- -- 54
2019-06-07 05:00:00 15.6 5 Sudoeste 14 Sur 0 -- -- 54
2019-06-07 04:00:00 15.8 7 Sudoeste 15 Sudoeste 0 -- -- 53
2019-06-07 03:00:00 16.6 8 Oeste 15 Sudoeste 0 -- -- 44
2019-06-07 02:00:00 18.4 6 Sudoeste 14 Sur 0 -- -- 30
2019-06-07 01:00:00 17.7 5 Sudoeste 14 Oeste 0 -- -- 34
2019-06-07 00:00:00 17.9 5 Sudoeste 14 Sudoeste 0 -- -- 39
2019-06-06 23:00:00 18.4 9 Sudoeste 18 Sudoeste 0 -- -- 42
2019-06-06 22:00:00 19.9 6 Sudoeste 20 Sur 0 -- -- 38
2019-06-06 21:00:00 20.8 8 Sur 22 Sudoeste 0 -- -- 36
2019-06-06 20:00:00 22 11 Sudoeste 24 Sur 0 -- -- 46
2019-06-06 19:00:00 23.3 9 Sur 25 Sudeste 0 -- -- 38
2019-06-06 18:00:00 24.5 9 Sur 27 Sudeste 0 -- -- 35
2019-06-06 17:00:00 24.4 9 Sudeste 26 Sudeste 0 -- -- 35
2019-06-06 16:00:00 24.4 14 Sur 31 Sur 0 -- -- 31
2019-06-06 15:00:00 25 15 Sudoeste 28 Sudoeste 0 -- -- 31
2019-06-06 14:00:00 25.4 7 Sudeste 23 Este 0 -- -- 29
2019-06-06 13:00:00 24.3 12 Sudeste 30 Este 0 -- -- 30
2019-06-06 12:00:00 23.4 7 Este 18 Nordeste 0 -- -- 27
2019-06-06 11:00:00 21.9 10 Nordeste 16 Nordeste 0 -- -- 26
2019-06-06 10:00:00 19.7 8 Este 13 Este 0 -- -- 29
2019-06-06 09:00:00 19.2 0 Calma 10 Sudoeste 0 -- -- 30
2019-06-06 08:00:00 14.9 7 Sudoeste 14 Sudoeste 0 -- -- 39
2019-06-06 07:00:00 12.8 6 Sudoeste 17 Sudoeste 0 -- -- 42
2019-06-06 06:00:00 13.4 12 Sudoeste 19 Oeste 0 -- -- 39
2019-06-06 05:00:00 13.4 9 Sudoeste 14 Sudoeste 0 -- -- 40
2019-06-06 04:00:00 14 9 Sudoeste 16 Sudoeste 0 -- -- 38
2019-06-06 03:00:00 14.7 8 Sudoeste 16 Sudoeste 0 -- -- 37
2019-06-06 02:00:00 15.2 10 Sudoeste 16 Sudoeste 0 -- -- 35
2019-06-06 01:00:00 16.3 8 Sudoeste 15 Sudoeste 0 -- -- 33
2019-06-06 00:00:00 18.1 8 Sudoeste 12 Sudoeste 0 -- -- 29
2019-06-05 23:00:00 19.9 5 Sudoeste 12 Oeste 0 -- -- 26
2019-06-05 22:00:00 21 3 Oeste 17 Oeste 0 -- -- 24
2019-06-05 21:00:00 22 4 Oeste 27 Oeste 0 -- -- 23
2019-06-05 20:00:00 22.9 6 Noroeste 24 Noroeste 0 -- -- 23
2019-06-05 19:00:00 24 10 Noroeste 25 Noroeste 0 -- -- 22
2019-06-05 18:00:00 24.7 8 Oeste 32 Sudoeste 0 -- -- 24
2019-06-05 17:00:00 23.7 15 Oeste 40 Oeste 0 -- -- 24
2019-06-05 16:00:00 22.9 18 Oeste 44 Oeste 0 -- -- 25
2019-06-05 15:00:00 23.4 21 Noroeste 51 Noroeste 0 -- -- 24
2019-06-05 14:00:00 23.3 18 Oeste 46 Oeste 0 -- -- 24
2019-06-05 13:00:00 23.5 13 Oeste 41 Sudoeste 0 -- -- 21
2019-06-05 12:00:00 22.3 17 Oeste 44 Oeste 0 -- -- 35
2019-06-05 11:00:00 22.7 13 Sudoeste 37 Sudoeste 0 -- -- 38
2019-06-05 10:00:00 22.5 5 Oeste 22 Oeste 0 -- -- 48
2019-06-05 09:00:00 22 5 Nordeste 15 Sudoeste 0 -- -- 51
2019-06-05 08:00:00 21 3 Sur 9 Oeste 0 -- -- 54
2019-06-05 07:00:00 19.1 4 Sudoeste 12 Sudoeste 0 -- -- 52
2019-06-05 06:00:00 20.1 7 Sudoeste 20 Oeste 0 -- -- 47
2019-06-05 05:00:00 15.6 0 Calma 4 Oeste 0 -- -- 73
2019-06-05 04:00:00 15.7 2 Noroeste 4 Noroeste 0 -- -- 75
2019-06-05 03:00:00 16.4 0 Calma 8 Este 0 -- -- 78
2019-06-05 02:00:00 18.2 6 Este 8 Este 0 -- -- 53
2019-06-05 01:00:00 20.5 3 Noroeste 8 Oeste 0 -- -- 32
2019-06-05 00:00:00 22.3 4 Sudoeste 10 Sudoeste 0 -- -- 28
2019-06-04 23:00:00 23.1 3 Oeste 16 Sudoeste 0 -- -- 30
2019-06-04 22:00:00 24 8 Sur 20 Sur 0 -- -- 28
2019-06-04 21:00:00 25.1 5 Sudoeste 25 Sur 0 -- -- 28
2019-06-04 20:00:00 25.6 10 Sur 33 Sudoeste 0 -- -- 33
2019-06-04 19:00:00 27.2 14 Sur 38 Sur 0 -- -- 29
2019-06-04 18:00:00 28.9 12 Sudoeste 28 Sur 0 -- -- 21
2019-06-04 17:00:00 28.6 16 Sur 31 Sur 0 -- -- 25
2019-06-04 16:00:00 29.7 14 Sur 33 Sudeste 0 -- -- 30
2019-06-04 15:00:00 31 15 Sur 30 Sur 0 -- -- 24
2019-06-04 14:00:00 31.2 13 Sur 26 Sur 0 -- -- 22
2019-06-04 13:00:00 31 12 Este 18 Nordeste 0 -- -- 24
2019-06-04 12:00:00 28.6 9 Este 15 Este 0 -- -- 28
2019-06-04 11:00:00 25.5 8 Este 13 Este 0 -- -- 39
2019-06-04 10:00:00 23.3 6 Este 9 Este 0 -- -- 46
2019-06-04 09:00:00 22.2 2 Este 5 Este 0 -- -- 41
2019-06-04 08:00:00 20.1 0 Calma 4 Noroeste 0 -- -- 43
2019-06-04 07:00:00 15.6 3 Oeste 4 Oeste 0 -- -- 50
2019-06-04 06:00:00 15.4 0 Calma 5 Sudeste 0 -- -- 52
2019-06-04 05:00:00 15.9 0 Calma 5 Sur 0 -- -- 58
2019-06-04 04:00:00 16.6 2 Este 9 Noroeste 0 -- -- 45
2019-06-04 03:00:00 17 0 Calma 6 Oeste 0 -- -- 54
2019-06-04 02:00:00 17.6 2 Oeste 4 Este 0 -- -- 53
2019-06-04 01:00:00 19 0 Calma 11 Sudoeste 0 -- -- 51
2019-06-04 00:00:00 22.3 6 Oeste 13 Sudoeste 0 -- -- 30
2019-06-03 23:00:00 23.3 10 Sudoeste 14 Oeste 0 -- -- 30
2019-06-03 22:00:00 24 6 Sudoeste 14 Sudoeste 0 -- -- 32
2019-06-03 21:00:00 25.4 8 Sudoeste 21 Sur 0 -- -- 29
2019-06-03 20:00:00 27.5 11 Sudoeste 25 Sur 0 -- -- 28
2019-06-03 19:00:00 29.4 10 Sur 26 Sudoeste 0 -- -- 28
2019-06-03 18:00:00 28.4 13 Sur 35 Sur 0 -- -- 31
2019-06-03 17:00:00 30.6 13 Sur 27 Sudeste 0 -- -- 28
2019-06-03 16:00:00 30.6 12 Sur 30 Sur 0 -- -- 26
2019-06-03 15:00:00 31.4 10 Sudeste 25 Sudoeste 0 -- -- 25
2019-06-03 14:00:00 29.4 13 Sur 27 Sudoeste 0 -- -- 25
2019-06-03 13:00:00 29 12 Sur 22 Sur 0 -- -- 25
2019-06-03 12:00:00 28.9 9 Sur 18 Sudoeste 0 -- -- 24
2019-06-03 11:00:00 26.7 4 Nordeste 10 Este 0 -- -- 28
2019-06-03 10:00:00 23.3 5 Nordeste 9 Nordeste 0 -- -- 32
2019-06-03 09:00:00 21.2 3 Sudoeste 11 Sudoeste 0 -- -- 34
2019-06-03 08:00:00 17.6 5 Sudoeste 13 Sudoeste 0 -- -- 39
2019-06-03 07:00:00 15.4 5 Oeste 14 Oeste 0 -- -- 43
2019-06-03 06:00:00 15.3 4 Oeste 12 Sudoeste 0 -- -- 43
2019-06-03 05:00:00 16 8 Sudoeste 14 Sudoeste 0 -- -- 41
2019-06-03 04:00:00 16.9 6 Oeste 15 Sudoeste 0 -- -- 38
2019-06-03 03:00:00 17 10 Sudoeste 16 Sudoeste 0 -- -- 38
2019-06-03 02:00:00 17.8 8 Oeste 18 Sudoeste 0 -- -- 36
2019-06-03 01:00:00 18.2 8 Sudoeste 17 Sudoeste 0 -- -- 36
2019-06-03 00:00:00 19.7 9 Sudoeste 17 Sudoeste 0 -- -- 34
2019-06-02 23:00:00 20.1 9 Sudoeste 17 Sudoeste 0 -- -- 36
2019-06-02 22:00:00 21.4 9 Sudoeste 17 Sudoeste 0 -- -- 35
2019-06-02 21:00:00 23.5 8 Sur 23 Sur 0 -- -- 27
2019-06-02 20:00:00 25.1 9 Sur 23 Sudoeste 0 -- -- 28
2019-06-02 19:00:00 26.5 12 Sudoeste 22 Sudoeste 0 -- -- 27
2019-06-02 18:00:00 27.4 10 Sur 26 Sudoeste 0 -- -- 27
2019-06-02 17:00:00 28 13 Sur 26 Sudoeste 0 -- -- 26
2019-06-02 16:00:00 29.3 7 Sur 21 Sudeste 0 -- -- 25
2019-06-02 15:00:00 29.1 11 Este 23 Este 0 -- -- 26
2019-06-02 14:00:00 28.8 12 Este 21 Este 0 -- -- 23
2019-06-02 13:00:00 29.6 3 Nordeste 13 Sur 0 -- -- 19
2019-06-02 12:00:00 26.7 6 Sudeste 14 Este 0 -- -- 22
2019-06-02 11:00:00 24.2 7 Este 12 Este 0 -- -- 30
2019-06-02 10:00:00 22.4 4 Este 7 Este 0 -- -- 31
2019-06-02 09:00:00 18.9 3 Este 14 Sudoeste 0 -- -- 41
2019-06-02 08:00:00 14.9 8 Sudoeste 17 Oeste 0 -- -- 45
2019-06-02 07:00:00 12.6 11 Sudoeste 18 Sudoeste 0 -- -- 50
2019-06-02 06:00:00 12.8 9 Sudoeste 15 Sudoeste 0 -- -- 50
2019-06-02 05:00:00 13.6 9 Oeste 15 Sudoeste 0 -- -- 48
2019-06-02 04:00:00 14.6 7 Sudoeste 14 Sudoeste 0 -- -- 45
2019-06-02 03:00:00 15.3 7 Sudoeste 15 Sudoeste 0 -- -- 45
2019-06-02 02:00:00 15.6 8 Sudoeste 15 Sudoeste 0 -- -- 45
2019-06-02 01:00:00 16.4 9 Sudoeste 14 Sudoeste 0 -- -- 43
2019-06-02 00:00:00 17.4 5 Sudoeste 12 Sudoeste 0 -- -- 41
2019-06-01 23:00:00 18.2 6 Sudoeste 17 Sur 0 -- -- 38
2019-06-01 22:00:00 19.1 7 Sudoeste 15 Sudoeste 0 -- -- 37
2019-06-01 21:00:00 21.2 8 Sudoeste 18 Sudoeste 0 -- -- 34
2019-06-01 20:00:00 24.6 4 Sur 15 Este 0 -- -- 30
2019-06-01 19:00:00 26.4 5 Este 21 Oeste 0 -- -- 29
2019-06-01 18:00:00 27.3 10 Nordeste 22 Nordeste 0 -- -- 27
2019-06-01 17:00:00 27.4 9 Nordeste 20 Este 0 -- -- 30
2019-06-01 16:00:00 26.9 11 Nordeste 21 Este 0 -- -- 33
2019-06-01 15:00:00 27.4 9 Nordeste 23 Nordeste 0 -- -- 30
2019-06-01 14:00:00 27.3 10 Nordeste 20 Nordeste 0 -- -- 23
2019-06-01 13:00:00 26.4 9 Nordeste 19 Este 0 -- -- 25
2019-06-01 12:00:00 24.9 6 Este 15 Este 0 -- -- 27
2019-06-01 11:00:00 22.5 9 Nordeste 15 Este 0 -- -- 36
2019-06-01 10:00:00 20.6 5 Este 11 Nordeste 0 -- -- 41
2019-06-01 09:00:00 19.3 2 Oeste 14 Sudoeste 0 -- -- 45
2019-06-01 08:00:00 13.9 8 Sudoeste 13 Sudoeste 0 -- -- 59
2019-06-01 07:00:00 11.7 8 Sudoeste 14 Oeste 0 -- -- 71
2019-06-01 06:00:00 12 7 Sudoeste 18 Oeste 0 -- -- 71
2019-06-01 05:00:00 12.7 10 Sudoeste 15 Sudoeste 0 -- -- 70
2019-06-01 04:00:00 13.3 6 Sudoeste 14 Sudoeste 0 -- -- 69
2019-06-01 03:00:00 14.2 8 Sudoeste 12 Sudoeste 0 -- -- 67
2019-06-01 02:00:00 14.9 7 Sudoeste 15 Oeste 0 -- -- 67
2019-06-01 01:00:00 15.7 7 Sudoeste 12 Sudoeste 0 -- -- 66
2019-06-01 00:00:00 17.2 5 Sudoeste 9 Oeste 0 -- -- 62
2019-05-31 23:00:00 17.7 2 Sudoeste 8 Oeste 0 -- -- 62
2019-05-31 22:00:00 18.9 4 Noroeste 11 Nordeste 0 -- -- 55
2019-05-31 21:00:00 20.7 5 Norte 15 Este 0 -- -- 50
2019-05-31 20:00:00 23.4 9 Este 21 Este 0 -- -- 49
2019-05-31 19:00:00 25.2 11 Nordeste 20 Este 0 -- -- 41
2019-05-31 18:00:00 25.5 8 Este 24 Este 0 -- -- 43
2019-05-31 17:00:00 25.9 10 Nordeste 23 Nordeste 0 -- -- 38
2019-05-31 16:00:00 25.6 12 Este 27 Sudeste 0 -- -- 40
2019-05-31 15:00:00 26.3 8 Nordeste 21 Nordeste 0 -- -- 35
2019-05-31 14:00:00 25.6 10 Nordeste 23 Este 0 -- -- 34
2019-05-31 13:00:00 24.6 8 Este 21 Sudeste 0 -- -- 35
2019-05-31 12:00:00 23.9 7 Este 15 Nordeste 0 -- -- 35
2019-05-31 11:00:00 22.4 9 Este 14 Este 0 -- -- 39
2019-05-31 10:00:00 20.4 6 Nordeste 10 Este 0 -- -- 46
2019-05-31 09:00:00 18.2 4 Sudoeste 9 Sudoeste 0 -- -- 45
2019-05-31 08:00:00 14.3 6 Sudoeste 16 Sudoeste 0 -- -- 56
2019-05-31 07:00:00 11.6 9 Sudoeste 16 Sudoeste 0 -- -- 68
2019-05-31 06:00:00 12.1 7 Oeste 14 Sudoeste 0 -- -- 71
2019-05-31 05:00:00 12.5 9 Sudoeste 14 Sudoeste 0 -- -- 71
2019-05-31 04:00:00 13 8 Sudoeste 19 Sudoeste 0 -- -- 71
2019-05-31 03:00:00 13.8 5 Oeste 17 Sudoeste 0 -- -- 70
2019-05-31 02:00:00 14.4 6 Oeste 13 Oeste 0 -- -- 68
2019-05-31 01:00:00 14.9 5 Sudoeste 15 Sudoeste 0 -- -- 66
2019-05-31 00:00:00 15.6 8 Sudoeste 13 Sudoeste 0 -- -- 64
2019-05-30 23:00:00 16.3 6 Sudoeste 18 Sudoeste 0 -- -- 61
2019-05-30 22:00:00 17.2 10 Sudoeste 18 Sur 0 -- -- 59
2019-05-30 21:00:00 19.1 8 Sur 19 Sudoeste 0 -- -- 54
2019-05-30 20:00:00 21.2 9 Sudoeste 24 Sur 0 -- -- 47
2019-05-30 19:00:00 22.7 10 Sur 21 Sur 0 -- -- 43
2019-05-30 18:00:00 24.1 8 Sur 24 Sur 0 -- -- 41
2019-05-30 17:00:00 23.9 10 Sur 24 Sudoeste 0 -- -- 42
2019-05-30 16:00:00 24.6 12 Sur 33 Este 0 -- -- 41
2019-05-30 15:00:00 25 6 Este 22 Este 0 -- -- 30
2019-05-30 14:00:00 24.4 6 Este 18 Nordeste 0 -- -- 29
2019-05-30 13:00:00 22.8 8 Este 17 Este 0 -- -- 30
2019-05-30 12:00:00 21.7 6 Este 17 Este 0 -- -- 34
2019-05-30 11:00:00 20.1 8 Este 14 Este 0 -- -- 36
2019-05-30 10:00:00 17.6 8 Este 12 Nordeste 0 -- -- 47
2019-05-30 09:00:00 16.6 4 Sudoeste 9 Sudoeste 0 -- -- 46
2019-05-30 08:00:00 12.8 5 Sudoeste 15 Sudoeste 0 -- -- 56
2019-05-30 07:00:00 10.1 9 Sudoeste 14 Oeste 0 -- -- 64
2019-05-30 06:00:00 10.6 7 Sudoeste 14 Sudoeste 0 -- -- 63
2019-05-30 05:00:00 11.4 7 Sudoeste 13 Sudoeste 0 -- -- 60
2019-05-30 04:00:00 11.4 11 Sudoeste 16 Sudoeste 0 -- -- 61
2019-05-30 03:00:00 12.2 8 Sudoeste 17 Oeste 0 -- -- 59
2019-05-30 02:00:00 12.7 9 Sudoeste 15 Sudoeste 0 -- -- 56
2019-05-30 01:00:00 13.4 9 Sudoeste 14 Sudoeste 0 -- -- 54
2019-05-30 00:00:00 14.7 8 Oeste 12 Oeste 0 -- -- 50
2019-05-29 23:00:00 15 0 Calma 4 Sur 0 -- -- 51
2019-05-29 22:00:00 16 0 Calma 12 Nordeste 0 -- -- 48
2019-05-29 21:00:00 18.2 6 Nordeste 22 Nordeste 0 -- -- 39
2019-05-29 20:00:00 19.5 12 Nordeste 21 Nordeste 0 -- -- 34
2019-05-29 19:00:00 20.9 10 Nordeste 24 Este 0 -- -- 34
2019-05-29 18:00:00 21.1 13 Nordeste 27 Este 0 -- -- 34
2019-05-29 17:00:00 21.4 17 Nordeste 28 Nordeste 0 -- -- 35
2019-05-29 16:00:00 21.1 12 Nordeste 33 Nordeste 0 -- -- 36
2019-05-29 15:00:00 21.1 18 Este 33 Este 0 -- -- 36
2019-05-29 14:00:00 19.8 11 Nordeste 24 Nordeste 0 -- -- 41
2019-05-29 13:00:00 19.6 9 Nordeste 23 Nordeste 0 -- -- 42
2019-05-29 12:00:00 18.5 7 Este 22 Este 0 -- -- 46
2019-05-29 11:00:00 16.7 10 Este 19 Nordeste 0 -- -- 50
2019-05-29 10:00:00 16.3 10 Nordeste 21 Este 0 -- -- 48
2019-05-29 09:00:00 15.1 9 Este 17 Nordeste 0 -- -- 60
2019-05-29 08:00:00 14.3 0 Calma 10 Sudoeste 0 -- -- 64
2019-05-29 07:00:00 11 2 Noroeste 12 Sudoeste 0 -- -- 74
2019-05-29 06:00:00 11.6 5 Sudoeste 11 Oeste 0 -- -- 71
2019-05-29 05:00:00 12.3 3 Oeste 10 Sudoeste 0 -- -- 69
2019-05-29 04:00:00 13.2 5 Sudoeste 9 Oeste 0 -- -- 70
2019-05-29 03:00:00 13.9 3 Sudoeste 8 Sudoeste 0 -- -- 69
2019-05-29 02:00:00 14.5 4 Sudoeste 6 Sudoeste 0 -- -- 71
2019-05-29 01:00:00 14.6 0 Calma 9 Sudoeste 0 -- -- 76
2019-05-29 00:00:00 15.9 3 Sudoeste 6 Sudoeste 0 -- -- 73
2019-05-28 23:00:00 15.9 0 Calma 6 Este 0 -- -- 73
2019-05-28 22:00:00 16.5 4 Este 16 Nordeste 0 -- -- 70
2019-05-28 21:00:00 18.3 8 Nordeste 20 Nordeste 0 -- -- 64
2019-05-28 20:00:00 21.5 10 Nordeste 24 Nordeste 0 -- -- 55
2019-05-28 19:00:00 23.3 13 Nordeste 26 Nordeste 0 -- -- 49
2019-05-28 18:00:00 24.6 13 Nordeste 25 Nordeste 0 -- -- 43
2019-05-28 17:00:00 26.8 6 Norte 20 Nordeste 0 -- -- 38
2019-05-28 16:00:00 24 12 Este 25 Este 0 -- -- 44
2019-05-28 15:00:00 24.8 12 Nordeste 27 Este 0 -- -- 43
2019-05-28 14:00:00 23.4 12 Este 28 Este 0 -- -- 48
2019-05-28 13:00:00 22.8 13 Nordeste 25 Este 0 -- -- 53
2019-05-28 12:00:00 22.5 8 Nordeste 17 Este 0 -- -- 52
2019-05-28 11:00:00 20.1 7 Nordeste 17 Este 0 -- -- 58
2019-05-28 10:00:00 19.3 7 Este 13 Este 0 -- -- 60
2019-05-28 09:00:00 18.4 4 Este 8 Sudoeste 0 -- -- 62
2019-05-28 08:00:00 15.7 4 Sudoeste 12 Sudoeste 0 -- -- 71
2019-05-28 07:00:00 13.8 8 Sudoeste 15 Sudoeste 0 -- -- 79
2019-05-28 06:00:00 13.8 10 Sudoeste 15 Sudoeste 0 -- -- 79
2019-05-28 05:00:00 14.3 5 Sudoeste 8 Sudoeste 0 -- -- 78
2019-05-28 04:00:00 14.8 3 Oeste 11 Sudoeste 0 -- -- 77
2019-05-28 03:00:00 15.4 4 Sudoeste 9 Sudoeste 0 -- -- 76
2019-05-28 02:00:00 16 4 Oeste 10 Sudoeste 0 -- -- 74
2019-05-28 01:00:00 16.8 6 Sudoeste 12 Sudoeste 0 -- -- 72
2019-05-28 00:00:00 17.8 8 Sudoeste 12 Sudoeste 0 -- -- 70
2019-05-27 23:00:00 18.3 0 Calma 8 Este 0 -- -- 64
2019-05-27 22:00:00 20 3 Este 11 Sudoeste 0 -- -- 57
2019-05-27 21:00:00 21.5 5 Sur 21 Sudoeste 0 -- -- 58
2019-05-27 20:00:00 23.2 10 Sudoeste 27 Sur 0 -- -- 51
2019-05-27 19:00:00 24.7 11 Sur 22 Sudoeste 0 -- -- 47
2019-05-27 18:00:00 25.4 10 Sur 21 Sur 0 -- -- 44
2019-05-27 17:00:00 26.2 8 Este 27 Este 0 -- -- 38
2019-05-27 16:00:00 27.1 12 Nordeste 27 Nordeste 0 -- -- 32
2019-05-27 15:00:00 26 13 Este 25 Nordeste 0 -- -- 36
2019-05-27 14:00:00 25.3 9 Este 22 Este 0 -- -- 36
2019-05-27 13:00:00 24.1 8 Nordeste 16 Nordeste 0 -- -- 40
2019-05-27 12:00:00 23.2 10 Este 19 Este 0 -- -- 43
2019-05-27 11:00:00 22.1 8 Este 15 Este 0 -- -- 48
2019-05-27 10:00:00 20.1 8 Este 10 Este 0 -- -- 56
2019-05-27 09:00:00 18.8 3 Sudoeste 13 Sudoeste 0 -- -- 57
2019-05-27 08:00:00 14.2 8 Sudoeste 15 Sudoeste 0 -- -- 66
2019-05-27 07:00:00 11.6 10 Sudoeste 17 Sudoeste 0 -- -- 75
2019-05-27 06:00:00 12.1 8 Oeste 17 Sudoeste 0 -- -- 76
2019-05-27 05:00:00 12.6 11 Sudoeste 18 Sudoeste 0 -- -- 77
2019-05-27 04:00:00 12.7 8 Sudoeste 14 Sudoeste 0 -- -- 80
2019-05-27 03:00:00 13.2 7 Sudoeste 17 Sudoeste 0 -- -- 79
2019-05-27 02:00:00 13.2 9 Sudoeste 15 Sudoeste 0 -- -- 81
2019-05-27 01:00:00 14.2 6 Sudoeste 15 Oeste 0 -- -- 78
2019-05-27 00:00:00 14.8 6 Sudoeste 12 Sudoeste 0 -- -- 76
2019-05-26 23:00:00 15 4 Oeste 9 Sur 0 -- -- 75
2019-05-26 22:00:00 16.9 5 Sudoeste 13 Sur 0 -- -- 65
2019-05-26 21:00:00 17.6 7 Sudoeste 19 Sudoeste 0 -- -- 62
2019-05-26 20:00:00 18.6 10 Sur 21 Sur 0 -- -- 60
2019-05-26 19:00:00 19.6 7 Sur 18 Sur 0 -- -- 58
2019-05-26 18:00:00 19.6 11 Sur 27 Sur 0 -- -- 59
2019-05-26 17:00:00 20.3 10 Sur 30 Sur 0 -- -- 56
2019-05-26 16:00:00 20.6 15 Sur 42 Sur 0 -- -- 53
2019-05-26 15:00:00 20.7 13 Sur 31 Sudeste 0 -- -- 52
2019-05-26 14:00:00 20.6 13 Sur 33 Sur 0 -- -- 50
2019-05-26 13:00:00 20.9 6 Sur 18 Sur 0 -- -- 48
2019-05-26 12:00:00 21.7 7 Este 14 Este 0 -- -- 47
2019-05-26 11:00:00 19.8 8 Este 13 Nordeste 0 -- -- 53
2019-05-26 10:00:00 18.3 8 Este 11 Nordeste 0 -- -- 59
2019-05-26 09:00:00 16.9 2 Este 10 Sudoeste 0 -- -- 64
2019-05-26 08:00:00 13.8 5 Sudoeste 19 Sudoeste 0 -- -- 69
2019-05-26 07:00:00 11.1 8 Sudoeste 14 Sudoeste 0 -- -- 79
2019-05-26 06:00:00 11.1 9 Sudoeste 17 Sudoeste 0 -- -- 78
2019-05-26 05:00:00 11.5 5 Sudoeste 15 Sudoeste 0 -- -- 78
2019-05-26 04:00:00 12.1 5 Sudoeste 13 Sudoeste 0 -- -- 76
2019-05-26 03:00:00 12.1 6 Sudoeste 14 Sudoeste 0 -- -- 76
2019-05-26 02:00:00 12.1 7 Sudoeste 14 Sudoeste 0 -- -- 78
2019-05-26 01:00:00 12.7 9 Sudoeste 15 Sudoeste 0 -- -- 76
2019-05-26 00:00:00 13.4 6 Sudoeste 13 Oeste 0 -- -- 75